Time;durP1;ratioP1;P1;durP2;ratioP2;P2;SDS_P1;SDS_P2;PMS_P1;PMS_P2;Temp;Humidity;BMP_temperature;BMP_pressure;BME280_temperature;BME280_humidity;BME280_pressure;Samples;Min_cycle;Max_cycle;Signal;HPM_P1;HPM_P2
2023/06/26 00:03:13;;;;;;;24.85;13.10;;;;;;;20.74;89.03;100746.14;5104269;56;1142829;-76
2023/06/26 00:08:16;;;;;;;26.07;12.95;;;;;;;20.52;87.54;100742.41;5105192;56;1142825;-78
2023/06/26 00:13:24;;;;;;;35.52;13.78;;;;;;;20.41;89.26;100749.55;5089372;56;1143088;-78
2023/06/26 00:18:30;;;;;;;15.23;10.80;;;;;;;20.20;88.27;100754.15;5089428;56;1143005;-77
2023/06/26 00:23:36;;;;;;;14.40;10.03;;;;;;;19.87;88.25;100754.79;5164462;56;1142954;-72
2023/06/26 00:28:42;;;;;;;14.57;10.00;;;;;;;19.54;89.08;100753.57;5155828;56;1142819;-71
2023/06/26 00:33:47;;;;;;;11.73;8.88;;;;;;;19.43;90.25;100748.52;5174692;56;1143032;-75
2023/06/26 00:38:53;;;;;;;15.35;9.73;;;;;;;19.31;90.76;100744.02;5099106;56;1140481;-79
2023/06/26 00:43:59;;;;;;;12.43;8.85;;;;;;;19.27;91.96;100745.35;5096577;56;1140895;-79
2023/06/26 00:49:06;;;;;;;13.88;9.13;;;;;;;19.25;92.32;100737.97;5098242;56;1140554;-72
2023/06/26 00:54:12;;;;;;;14.60;8.68;;;;;;;19.23;92.75;100735.99;5097722;56;1140937;-71
2023/06/26 00:59:18;;;;;;;14.18;9.08;;;;;;;19.12;92.07;100735.48;5097506;56;1140975;-76
2023/06/26 01:04:27;;;;;;;12.80;9.30;;;;;;;19.00;92.54;100728.29;5097598;56;1140986;-81
2023/06/26 01:09:32;;;;;;;17.60;10.43;;;;;;;18.89;92.74;100725.95;5098284;56;1140677;-73
2023/06/26 01:14:38;;;;;;;15.35;9.63;;;;;;;18.67;93.17;100726.10;5124601;55;1142855;-71
2023/06/26 01:19:45;;;;;;;12.47;10.27;;;;;;;18.79;95.77;100728.78;5206865;55;1140965;-71
2023/06/26 01:25:22;;;;;;;21.87;10.95;;;;;;;19.04;96.56;100718.91;5150676;56;1142884;-73
2023/06/26 01:30:26;;;;;;;28.83;13.13;;;;;;;19.21;95.59;100721.91;5150507;56;1142833;-70
2023/06/26 01:35:33;;;;;;;24.92;12.63;;;;;;;19.35;95.74;100718.20;5154151;55;1142805;-75
2023/06/26 01:40:38;;;;;;;23.10;11.50;;;;;;;19.41;95.22;100707.60;5147809;56;1142713;-71
2023/06/26 01:45:46;;;;;;;33.78;12.55;;;;;;;19.42;94.40;100709.78;5087370;56;1142779;-75
2023/06/26 01:50:54;;;;;;;19.98;10.43;;;;;;;19.42;94.33;100707.94;5068918;56;1143062;-69
2023/06/26 01:56:13;;;;;;;25.77;11.73;;;;;;;19.43;93.01;100700.73;5088963;56;1143054;-73
2023/06/26 02:01:19;;;;;;;13.38;9.28;;;;;;;19.16;91.09;100703.31;5108012;56;1143207;-75
2023/06/26 02:06:25;;;;;;;17.40;10.68;;;;;;;18.73;91.43;100698.66;5156822;55;1140990;-77
2023/06/26 02:11:30;;;;;;;19.28;10.40;;;;;;;18.78;94.37;100689.62;5174304;55;1142940;-79
2023/06/26 02:16:36;;;;;;;24.18;10.20;;;;;;;18.79;93.58;100699.30;5155182;56;1142870;-73
2023/06/26 02:21:43;;;;;;;13.58;9.05;;;;;;;18.54;92.60;100692.23;5151265;56;1143077;-72
2023/06/26 02:26:49;;;;;;;18.10;10.18;;;;;;;18.31;92.77;100689.88;5152194;56;1140884;-73
2023/06/26 02:31:55;;;;;;;11.30;7.83;;;;;;;18.16;93.35;100693.70;5168212;56;1142622;-76
2023/06/26 02:37:01;;;;;;;10.60;7.83;;;;;;;17.96;93.74;100690.45;5135119;55;1140773;-76
2023/06/26 02:42:07;;;;;;;13.98;9.13;;;;;;;17.69;94.67;100692.03;5136563;55;1141123;-79
2023/06/26 02:47:13;;;;;;;10.78;7.55;;;;;;;17.73;97.06;100687.52;5167748;55;1140973;-75
2023/06/26 02:52:20;;;;;;;15.78;9.13;;;;;;;17.92;97.28;100693.95;5121712;55;1141149;-72
2023/06/26 02:57:26;;;;;;;34.08;11.78;;;;;;;18.15;98.29;100679.98;5151459;55;1141300;-76
2023/06/26 03:02:32;;;;;;;30.17;12.88;;;;;;;18.36;98.27;100687.03;5132190;55;1143273;-76
2023/06/26 03:07:38;;;;;;;30.85;12.25;;;;;;;18.49;98.44;100687.38;5115453;55;1143316;-72
2023/06/26 03:12:44;;;;;;;21.02;11.60;;;;;;;18.62;98.19;100682.92;5073268;56;1143308;-72
2023/06/26 03:17:50;;;;;;;26.15;11.35;;;;;;;18.68;96.94;100678.72;5012885;56;1143140;-74
2023/06/26 03:22:57;;;;;;;25.57;11.85;;;;;;;18.63;96.28;100680.58;5058833;56;1143082;-71
2023/06/26 03:28:03;;;;;;;23.98;12.05;;;;;;;18.65;96.22;100680.38;5065821;57;1143186;-73
2023/06/26 03:33:09;;;;;;;18.98;11.80;;;;;;;18.68;96.65;100673.36;5065838;57;1143164;-79
2023/06/26 03:38:15;;;;;;;21.52;11.43;;;;;;;18.69;96.41;100675.03;5060950;57;1142834;-78
2023/06/26 03:43:22;;;;;;;27.67;11.15;;;;;;;18.70;97.07;100680.23;5064684;56;1142858;-79
2023/06/26 03:48:32;;;;;;;15.28;8.98;;;;;;;18.65;95.89;100685.24;5064270;57;1143080;-70
2023/06/26 03:53:38;;;;;;;16.80;8.80;;;;;;;18.33;94.64;100687.38;5011140;57;1140773;-76
2023/06/26 03:58:43;;;;;;;15.78;9.58;;;;;;;18.02;95.39;100679.61;5024745;57;1140947;-73
2023/06/26 04:03:49;;;;;;;21.52;10.00;;;;;;;17.82;96.75;100674.53;5043466;57;1140677;-78
2023/06/26 04:09:31;;;;;;;17.50;8.35;;;;;;;17.70;98.90;100671.81;5286307;54;46180;-76
2023/06/26 04:14:38;;;;;;;14.63;9.08;;;;;;;17.61;100.00;100678.08;5086383;56;1136841;-71
2023/06/26 04:19:44;;;;;;;20.63;9.77;;;;;;;17.60;100.00;100669.71;5142775;55;1143030;-74
2023/06/26 04:24:49;;;;;;;19.48;10.95;;;;;;;17.56;100.00;100673.73;5156230;55;1143063;-75
2023/06/26 04:29:55;;;;;;;16.67;9.03;;;;;;;17.54;100.00;100675.72;5143251;55;1145397;-70
2023/06/26 04:35:01;;;;;;;16.00;9.80;;;;;;;17.58;100.00;100672.55;5156921;55;1143098;-77
2023/06/26 04:40:09;;;;;;;14.28;9.48;;;;;;;17.69;100.00;100678.16;5184144;54;1143087;-77
2023/06/26 04:45:15;;;;;;;12.95;9.88;;;;;;;17.77;100.00;100671.48;5145015;55;1142923;-71
2023/06/26 04:50:20;;;;;;;10.53;8.90;;;;;;;17.86;100.00;100669.20;5145558;55;1142814;-73
2023/06/26 04:55:27;;;;;;;11.55;9.93;;;;;;;17.94;100.00;100668.37;5210364;55;1142897;-76
2023/06/26 05:00:35;;;;;;;18.34;9.34;;;;;;;18.09;100.00;100665.40;5152850;55;1143156;-78
2023/06/26 05:05:40;;;;;;;13.20;9.03;;;;;;;18.28;100.00;100662.43;5233274;55;1143055;-70
2023/06/26 05:10:46;;;;;;;9.93;8.40;;;;;;;18.51;100.00;100667.96;5153956;55;1142976;-68
2023/06/26 05:15:53;;;;;;;15.10;8.25;;;;;;;18.78;100.00;100666.01;5131499;55;1140912;-71
2023/06/26 05:20:59;;;;;;;15.48;10.10;;;;;;;18.95;100.00;100661.77;5207184;55;1142896;-76
2023/06/26 05:26:05;;;;;;;8.95;8.05;;;;;;;19.05;100.00;100664.80;5227745;55;1145034;-71
2023/06/26 05:31:12;;;;;;;14.78;8.68;;;;;;;19.23;100.00;100666.27;5207636;55;1140852;-73
2023/06/26 05:36:20;;;;;;;13.22;8.58;;;;;;;19.38;100.00;100662.38;5207462;55;1142929;-77
2023/06/26 05:41:26;;;;;;;12.77;8.57;;;;;;;19.62;100.00;100656.10;5206954;55;1143165;-72
2023/06/26 05:58:59;;;;;;;8.93;6.03;;;;;;;19.79;99.58;100644.28;5110537;56;47407;-72
2023/06/26 06:04:04;;;;;;;10.03;5.60;;;;;;;20.20;96.78;100635.98;4904134;58;1134651;-69
2023/06/26 06:09:10;;;;;;;9.10;6.78;;;;;;;20.32;92.65;100643.94;4946054;57;1140759;-78
2023/06/26 06:14:16;;;;;;;25.37;8.23;;;;;;;20.46;91.78;100636.51;4895469;57;1138863;-73
2023/06/26 06:19:21;;;;;;;12.80;7.28;;;;;;;20.57;92.28;100643.30;4933529;57;1140879;-79
2023/06/26 06:24:27;;;;;;;17.70;7.00;;;;;;;20.68;92.34;100635.62;4874553;58;1140976;-73
2023/06/26 06:29:32;;;;;;;11.18;7.47;;;;;;;21.00;93.20;100637.68;4880777;58;1140836;-69
2023/06/26 06:34:38;;;;;;;16.17;6.80;;;;;;;21.14;93.05;100633.33;4861971;58;1141550;-71
2023/06/26 06:39:43;;;;;;;11.35;7.35;;;;;;;21.49;93.88;100629.94;4862680;58;1141012;-76
2023/06/26 06:44:49;;;;;;;9.65;6.40;;;;;;;21.67;91.89;100626.34;4880499;58;1140953;-73
2023/06/26 06:49:55;;;;;;;10.60;6.40;;;;;;;21.91;91.94;100625.16;4821959;58;1138860;-72
2023/06/26 06:55:05;;;;;;;9.83;6.58;;;;;;;22.08;91.02;100627.98;4817623;58;1140855;-75
2023/06/26 07:00:11;;;;;;;7.22;6.10;;;;;;;22.25;89.78;100630.42;4919802;57;1138964;-71
2023/06/26 07:05:17;;;;;;;9.03;6.10;;;;;;;22.37;88.14;100623.48;4930283;58;1138839;-77
2023/06/26 07:10:24;;;;;;;9.10;5.67;;;;;;;22.52;86.13;100622.91;5035712;56;1138914;-76
2023/06/26 07:15:30;;;;;;;5.90;5.22;;;;;;;22.77;88.62;100622.82;5021682;56;1138712;-77
2023/06/26 07:20:36;;;;;;;6.05;4.33;;;;;;;23.03;84.43;100618.16;5080150;56;1138864;-72
2023/06/26 07:25:41;;;;;;;4.50;4.08;;;;;;;23.14;81.39;100620.80;5062182;56;1138790;-74
2023/06/26 07:30:47;;;;;;;4.53;3.53;;;;;;;23.30;79.42;100619.14;5004382;57;1138919;-80
2023/06/26 07:35:53;;;;;;;6.03;3.83;;;;;;;23.45;77.82;100614.95;5092638;56;1139193;-77
2023/06/26 07:40:58;;;;;;;3.83;3.00;;;;;;;23.64;77.98;100616.12;5078269;56;1138689;-69
2023/06/26 07:46:04;;;;;;;8.35;3.55;;;;;;;23.88;78.29;100610.67;5026797;56;1138758;-70
2023/06/26 07:51:10;;;;;;;5.08;3.42;;;;;;;24.42;74.27;100594.40;5097068;57;1139095;-75
2023/06/26 07:56:15;;;;;;;8.25;3.70;;;;;;;24.42;74.27;100594.40;4943908;58;1138861;-72
2023/06/26 08:01:21;;;;;;;4.37;4.00;;;;;;;24.52;73.93;100593.45;4931839;58;1139123;-69
2023/06/26 08:06:27;;;;;;;3.42;3.22;;;;;;;24.55;73.45;100597.09;4934074;57;1138987;-70
2023/06/26 08:11:32;;;;;;;5.85;4.60;;;;;;;24.81;77.17;100590.31;4893701;58;1138731;-74
2023/06/26 08:16:38;;;;;;;4.10;3.58;;;;;;;25.16;76.01;100590.91;5015038;57;1138777;-72
2023/06/26 08:21:45;;;;;;;4.67;4.20;;;;;;;25.27;75.50;100589.93;4988961;57;1139037;-73
2023/06/26 08:26:51;;;;;;;4.58;3.87;;;;;;;25.53;74.96;100592.01;4973387;57;1138976;-69
2023/06/26 08:31:57;;;;;;;4.25;3.90;;;;;;;25.67;73.30;100583.85;4953217;57;1138913;-74
2023/06/26 08:37:02;;;;;;;7.28;3.80;;;;;;;25.69;71.62;100579.88;4953429;57;1138970;-72
2023/06/26 08:42:08;;;;;;;6.78;3.42;;;;;;;25.80;69.92;100576.52;4972412;57;1138970;-69
2023/06/26 08:47:14;;;;;;;4.97;3.80;;;;;;;25.93;71.10;100571.53;4953188;57;1138822;-72
2023/06/26 08:52:30;;;;;;;4.45;4.05;;;;;;;26.01;69.73;100569.91;4952312;57;1139149;-71
2023/06/26 08:57:36;;;;;;;6.50;3.97;;;;;;;25.90;69.09;100567.38;4953548;56;1138988;-69
2023/06/26 09:02:43;;;;;;;4.28;3.75;;;;;;;26.07;71.24;100566.33;4988580;57;1138854;-74
2023/06/26 09:07:48;;;;;;;4.72;3.67;;;;;;;26.30;69.25;100569.00;4972534;57;1138781;-76
2023/06/26 09:12:58;;;;;;;6.10;3.87;;;;;;;26.28;67.87;100555.63;5025274;57;1139150;-78
2023/06/26 09:18:06;;;;;;;4.25;3.70;;;;;;;26.32;66.03;100550.62;5043491;57;1139122;-71
2023/06/26 09:23:12;;;;;;;8.85;4.30;;;;;;;26.24;68.13;100561.20;5022907;57;1138984;-72
2023/06/26 09:28:19;;;;;;;3.47;3.17;;;;;;;26.48;68.08;100554.14;5024504;57;1138595;-73
2023/06/26 09:33:24;;;;;;;3.62;3.33;;;;;;;26.59;65.10;100560.19;5023532;57;1138866;-80
2023/06/26 09:38:30;;;;;;;3.47;3.17;;;;;;;26.36;61.43;100551.33;4962722;58;1138816;-71
2023/06/26 09:43:36;;;;;;;7.62;3.52;;;;;;;26.37;63.56;100548.09;4916930;58;1138761;-71
2023/06/26 09:48:41;;;;;;;3.85;3.47;;;;;;;26.51;66.31;100550.47;4962142;57;1138973;-78
2023/06/26 09:53:48;;;;;;;3.80;3.52;;;;;;;26.83;65.61;100545.78;5040229;57;1138846;-70
2023/06/26 09:58:59;;;;;;;3.80;3.50;;;;;;;26.51;61.28;100540.97;4981808;57;1138712;-72
2023/06/26 10:04:05;;;;;;;7.65;3.35;;;;;;;26.30;63.11;100533.74;5025339;56;1138844;-74
2023/06/26 10:09:13;;;;;;;4.33;3.75;;;;;;;26.39;67.53;100531.91;5009499;57;1138937;-77
2023/06/26 10:14:22;;;;;;;7.22;4.15;;;;;;;26.72;66.28;100529.41;4909889;58;1138869;-74
2023/06/26 10:19:29;;;;;;;7.58;3.85;;;;;;;26.61;61.86;100536.38;4910973;58;1138888;-75
2023/06/26 10:24:37;;;;;;;4.67;4.10;;;;;;;26.46;62.77;100522.34;4995568;57;1138954;-73
2023/06/26 10:29:43;;;;;;;4.80;4.00;;;;;;;26.70;65.01;100518.78;4995155;57;1138958;-75
2023/06/26 10:34:49;;;;;;;6.00;3.80;;;;;;;27.09;62.06;100511.27;4910624;58;1139106;-74
2023/06/26 10:39:55;;;;;;;3.85;3.55;;;;;;;27.41;61.07;100503.23;4996158;57;1138860;-72
2023/06/26 10:45:19;;;;;;;4.47;3.60;;;;;;;27.70;58.85;100504.31;5015095;58;1138871;-70
2023/06/26 10:50:28;;;;;;;9.95;4.95;;;;;;;27.89;59.01;100501.84;4910838;58;1138802;-76
2023/06/26 10:55:34;;;;;;;5.80;4.12;;;;;;;27.95;59.35;100498.20;4994167;58;1138929;-69
2023/06/26 11:00:44;;;;;;;5.10;3.77;;;;;;;28.17;59.17;100493.02;5098568;56;1138813;-67
2023/06/26 11:06:13;;;;;;;6.10;3.63;;;;;;;28.20;57.99;100487.67;5060123;56;1139229;-76
2023/06/26 11:11:18;;;;;;;8.43;4.10;;;;;;;28.26;55.90;100482.10;5031292;56;1138715;-69
2023/06/26 11:16:25;;;;;;;4.80;3.85;;;;;;;27.88;55.32;100484.40;5010359;56;1138865;-75
2023/06/26 11:21:32;;;;;;;11.40;3.75;;;;;;;28.05;57.60;100474.50;5035139;57;1138967;-70
2023/06/26 11:26:41;;;;;;;3.70;3.47;;;;;;;28.23;55.29;100476.33;5035483;56;1141000;-68
2023/06/26 11:31:47;;;;;;;3.68;3.34;;;;;;;28.60;55.15;100472.28;5004110;57;1138887;-71
2023/06/26 11:36:52;;;;;;;3.47;3.27;;;;;;;28.78;55.44;100463.15;4987240;57;1138941;-71
2023/06/26 11:41:59;;;;;;;7.87;3.30;;;;;;;28.82;50.79;100468.98;5060295;56;1138792;-75
2023/06/26 11:47:05;;;;;;;4.75;2.77;;;;;;;28.84;53.19;100456.79;5096561;56;1138723;-74
2023/06/26 11:52:11;;;;;;;2.67;2.55;;;;;;;29.02;49.80;100454.44;4981218;57;1139290;-72
2023/06/26 11:57:17;;;;;;;5.72;3.47;;;;;;;28.87;48.90;100446.78;4966306;57;1138781;-70
2023/06/26 12:02:23;;;;;;;4.92;3.05;;;;;;;28.85;49.01;100442.64;5156768;55;1138812;-74
2023/06/26 12:07:29;;;;;;;4.47;3.37;;;;;;;28.99;52.03;100432.59;5150778;55;1138860;-73
2023/06/26 12:12:36;;;;;;;4.20;3.22;;;;;;;29.17;51.21;100428.86;5160741;55;1138777;-73
2023/06/26 12:17:42;;;;;;;5.75;3.10;;;;;;;29.46;49.81;100421.53;5119194;56;1138953;-79
2023/06/26 12:22:49;;;;;;;3.62;3.33;;;;;;;29.63;50.19;100410.11;5151463;55;1138632;-75
2023/06/26 12:27:55;;;;;;;3.60;3.30;;;;;;;29.84;52.24;100409.06;5172514;55;1138676;-70
2023/06/26 12:33:01;;;;;;;3.95;3.50;;;;;;;29.89;51.35;100407.26;5122809;55;1138665;-77
2023/06/26 12:38:15;;;;;;;5.45;3.20;;;;;;;29.97;48.63;100401.40;5119559;56;1138717;-75
2023/06/26 12:43:26;;;;;;;3.75;3.30;;;;;;;29.96;49.59;100396.98;5139288;56;1138760;-78
2023/06/26 12:48:47;;;;;;;5.33;2.95;;;;;;;30.02;47.83;100385.66;5118337;55;1139091;-77
2023/06/26 12:53:53;;;;;;;2.83;2.70;;;;;;;29.95;48.36;100383.59;5120168;55;1138893;-70
2023/06/26 12:58:59;;;;;;;4.10;2.80;;;;;;;29.69;46.43;100377.75;5141168;55;1138621;-72
2023/06/26 13:04:06;;;;;;;3.12;2.92;;;;;;;29.60;49.74;100372.98;5118619;56;1138768;-73
2023/06/26 13:09:11;;;;;;;6.58;3.27;;;;;;;29.76;50.35;100370.79;5109991;55;1138912;-79
2023/06/26 13:14:17;;;;;;;4.17;3.77;;;;;;;30.04;49.10;100367.15;5129027;56;1138722;-72
2023/06/26 13:19:22;;;;;;;4.25;3.17;;;;;;;30.19;47.69;100356.45;4962181;58;1138717;-73
2023/06/26 13:24:29;;;;;;;3.37;3.17;;;;;;;30.43;47.77;100353.77;5109154;56;1138790;-79
2023/06/26 13:29:34;;;;;;;3.72;3.27;;;;;;;30.58;45.95;100346.88;5128943;56;1138784;-71
2023/06/26 13:34:41;;;;;;;3.23;3.07;;;;;;;30.63;45.58;100330.56;5126008;55;1139077;-75
2023/06/26 13:39:50;;;;;;;4.30;3.52;;;;;;;30.49;43.66;100334.20;5194471;55;1138973;-67
2023/06/26 13:44:56;;;;;;;3.25;3.00;;;;;;;30.44;44.83;100316.38;5172144;55;1138718;-70
2023/06/26 13:50:01;;;;;;;5.42;3.17;;;;;;;30.49;46.01;100307.44;5044319;56;1138768;-78
2023/06/26 13:55:07;;;;;;;4.78;3.45;;;;;;;30.45;45.94;100297.56;5043783;56;1138809;-78
2023/06/26 14:00:15;;;;;;;3.65;3.17;;;;;;;30.46;46.96;100292.39;5063335;56;1138654;-76
2023/06/26 14:05:22;;;;;;;3.60;3.30;;;;;;;30.47;45.48;100291.31;5011723;56;1138663;-77
2023/06/26 14:10:28;;;;;;;3.67;3.30;;;;;;;30.43;44.40;100286.08;5144281;55;1139044;-73
2023/06/26 14:15:35;;;;;;;4.15;3.85;;;;;;;30.11;44.09;100281.03;5189754;55;1139001;-75
2023/06/26 14:20:42;;;;;;;5.10;3.35;;;;;;;29.96;44.52;100273.44;5215252;55;1139181;-73
2023/06/26 14:25:48;;;;;;;3.25;3.00;;;;;;;29.94;46.06;100259.26;5147104;55;1138955;-71
2023/06/26 14:30:53;;;;;;;3.65;2.98;;;;;;;29.91;44.74;100263.31;5032143;56;1138895;-77
2023/06/26 14:35:59;;;;;;;9.10;3.20;;;;;;;29.90;45.47;100258.10;5141298;56;1138932;-76
2023/06/26 14:41:05;;;;;;;3.77;3.17;;;;;;;29.72;46.06;100248.31;5123024;55;1138790;-72
2023/06/26 14:46:11;;;;;;;5.72;3.12;;;;;;;29.62;47.18;100252.27;5128515;55;1138574;-73
2023/06/26 14:51:16;;;;;;;3.85;3.55;;;;;;;29.52;48.43;100239.30;5129361;56;1138689;-71
2023/06/26 14:56:22;;;;;;;5.30;3.67;;;;;;;29.46;47.77;100225.86;5109213;56;1138618;-74
2023/06/26 15:01:28;;;;;;;3.55;3.25;;;;;;;29.37;47.62;100219.96;5108901;56;1138901;-73
2023/06/26 15:06:34;;;;;;;3.80;3.50;;;;;;;29.37;48.18;100214.52;5138366;55;1138859;-75
2023/06/26 15:11:40;;;;;;;3.87;3.58;;;;;;;29.39;48.56;100208.31;5162967;55;1138803;-70
2023/06/26 15:16:45;;;;;;;5.62;3.47;;;;;;;29.51;49.10;100195.94;5173500;55;1139024;-74
2023/06/26 15:21:51;;;;;;;5.35;3.70;;;;;;;29.77;48.50;100176.14;5155544;55;1138669;-71
2023/06/26 15:26:56;;;;;;;3.50;3.20;;;;;;;29.77;48.50;100176.14;5142639;55;1138693;-70
2023/06/26 15:32:02;;;;;;;7.87;3.10;;;;;;;29.81;47.84;100181.36;5109415;56;1139122;-71
2023/06/26 15:37:08;;;;;;;3.52;3.22;;;;;;;29.79;47.77;100178.63;5146878;55;1138592;-74
2023/06/26 15:42:14;;;;;;;7.22;3.42;;;;;;;29.74;47.92;100173.38;5216249;55;1138882;-71
2023/06/26 15:47:19;;;;;;;4.87;3.08;;;;;;;29.67;47.72;100170.00;5195639;55;1138664;-76
2023/06/26 15:52:25;;;;;;;3.62;3.37;;;;;;;29.76;47.60;100174.50;5195844;55;1138743;-73
2023/06/26 15:57:35;;;;;;;5.63;4.03;;;;;;;29.87;48.05;100179.53;5195921;55;1138773;-73
2023/06/26 16:02:41;;;;;;;3.35;3.17;;;;;;;29.85;46.78;100173.50;5215740;55;1138648;-68
2023/06/26 16:07:46;;;;;;;8.25;4.80;;;;;;;29.69;46.51;100174.67;5187219;55;1138702;-73
2023/06/26 16:12:52;;;;;;;7.90;5.54;;;;;;;29.58;47.38;100167.98;5196224;55;1138815;-74
2023/06/26 16:17:58;;;;;;;4.00;3.12;;;;;;;29.49;48.66;100163.48;5223979;55;1138979;-71
2023/06/26 16:23:04;;;;;;;8.33;4.92;;;;;;;29.43;49.15;100159.06;5206213;55;1139227;-72
2023/06/26 16:28:09;;;;;;;7.42;6.22;;;;;;;29.26;48.92;100145.98;5206068;55;1138717;-75
2023/06/26 16:33:15;;;;;;;4.65;3.92;;;;;;;29.19;49.37;100149.40;5225900;55;1138951;-70
2023/06/26 16:38:21;;;;;;;3.90;3.50;;;;;;;29.21;50.15;100141.27;5205404;55;1138673;-70
2023/06/26 16:43:26;;;;;;;17.77;5.12;;;;;;;29.18;50.23;100134.16;5206240;55;1138692;-72
2023/06/26 16:48:32;;;;;;;5.97;4.77;;;;;;;29.14;50.95;100127.56;5206182;55;1140680;-69
2023/06/26 16:53:38;;;;;;;8.08;6.03;;;;;;;29.22;51.00;100126.58;5226352;55;1138603;-67
2023/06/26 16:58:43;;;;;;;8.05;5.53;;;;;;;29.24;51.09;100110.81;5206290;55;1138801;-71
2023/06/26 17:03:51;;;;;;;6.85;4.55;;;;;;;29.28;51.68;100112.50;5207659;55;1138904;-70
2023/06/26 17:08:56;;;;;;;6.62;4.53;;;;;;;29.29;51.13;100103.25;5200853;55;1138909;-74
2023/06/26 17:14:02;;;;;;;6.20;5.03;;;;;;;29.19;51.07;100100.38;5206384;55;1138636;-73
2023/06/26 17:19:07;;;;;;;9.33;7.07;;;;;;;29.04;51.29;100099.08;5200178;55;1139053;-68
2023/06/26 17:24:13;;;;;;;13.40;12.07;;;;;;;28.95;51.77;100094.32;5215904;55;1138604;-73
2023/06/26 17:29:18;;;;;;;6.78;6.17;;;;;;;28.85;52.38;100093.64;5193732;55;1142733;-72
2023/06/26 17:34:24;;;;;;;6.37;5.30;;;;;;;28.81;53.38;100093.02;5044384;57;1138555;-70
2023/06/26 17:39:30;;;;;;;5.85;5.25;;;;;;;28.78;53.96;100095.67;5128065;56;1138779;-69
2023/06/26 17:44:35;;;;;;;4.50;4.20;;;;;;;28.67;54.17;100078.90;5064842;56;1138777;-70
2023/06/26 17:49:41;;;;;;;6.05;5.25;;;;;;;28.49;54.50;100069.08;5043759;57;1138823;-76
2023/06/26 17:54:47;;;;;;;10.93;8.10;;;;;;;28.42;55.04;100063.50;5044649;57;1138681;-70
2023/06/26 17:59:54;;;;;;;6.47;4.92;;;;;;;28.29;55.61;100062.76;5063206;57;1141149;-70
2023/06/26 18:04:59;;;;;;;13.75;4.95;;;;;;;28.20;55.96;100063.42;5044182;57;1139016;-70
2023/06/26 18:10:05;;;;;;;5.30;4.80;;;;;;;28.15;56.46;100060.03;4958558;57;1140940;-72
2023/06/26 18:15:11;;;;;;;5.58;4.97;;;;;;;28.13;56.73;100052.66;4982581;58;1138826;-75
2023/06/26 18:20:17;;;;;;;9.65;4.75;;;;;;;28.11;56.73;100056.71;5047688;56;1138873;-70
2023/06/26 18:25:22;;;;;;;5.60;4.58;;;;;;;28.04;57.05;100050.05;4968096;57;1138852;-70
2023/06/26 18:30:28;;;;;;;15.47;5.27;;;;;;;27.89;57.32;100036.19;5044421;56;1139024;-72
2023/06/26 18:35:33;;;;;;;6.13;5.03;;;;;;;27.72;57.48;100027.98;5056893;57;1141006;-71
2023/06/26 18:40:39;;;;;;;14.68;4.97;;;;;;;27.57;58.01;100020.37;5046205;57;1138652;-69
2023/06/26 18:45:45;;;;;;;5.20;4.80;;;;;;;27.50;58.53;100019.64;5030714;57;1252855;-74
2023/06/26 18:50:51;;;;;;;5.47;5.08;;;;;;;27.44;58.91;100010.30;5053193;57;1138911;-75
2023/06/26 18:55:56;;;;;;;11.45;5.60;;;;;;;27.38;59.36;100003.92;5041835;57;1138937;-71
2023/06/26 19:01:02;;;;;;;9.55;4.65;;;;;;;27.31;59.62;100004.62;5052815;57;1141116;-77
2023/06/26 19:06:08;;;;;;;10.13;6.35;;;;;;;27.25;60.11;100007.75;5063096;57;1138979;-70
2023/06/26 19:11:15;;;;;;;21.40;5.53;;;;;;;27.19;60.91;100048.06;5130684;55;1140840;-74
2023/06/26 19:16:21;;;;;;;16.82;4.20;;;;;;;26.25;69.33;100152.94;5202722;55;1140880;-76
2023/06/26 19:21:28;;;;;;;9.08;4.08;;;;;;;24.44;85.52;100198.95;5168952;55;1141054;-71
2023/06/26 19:26:39;;;;;;;6.85;3.95;;;;;;;22.86;100.00;100212.25;5196073;55;1138964;-73
2023/06/26 19:31:40;;;;;;;6.70;4.17;;;;;;;21.78;100.00;100226.56;5174463;55;1140837;-74
2023/06/26 19:36:46;;;;;;;8.40;5.17;;;;;;;21.40;100.00;100222.06;5118907;55;1140857;-72
2023/06/26 19:41:52;;;;;;;5.45;4.50;;;;;;;21.20;100.00;100213.86;5154943;55;1140722;-70
2023/06/26 19:46:58;;;;;;;9.25;5.25;;;;;;;21.24;100.00;100200.32;5138729;55;1140806;-72
2023/06/26 19:52:04;;;;;;;10.32;8.85;;;;;;;21.45;100.00;100185.16;5111974;56;1140852;-73
2023/06/26 19:57:10;;;;;;;31.65;22.80;;;;;;;21.54;100.00;100193.41;5054403;56;1143140;-73
2023/06/26 20:02:16;;;;;;;7.85;5.42;;;;;;;21.60;100.00;100193.94;5057111;56;1145003;-70
2023/06/26 20:07:22;;;;;;;7.55;4.60;;;;;;;21.79;100.00;100193.22;5129784;55;1254043;-71
2023/06/26 20:12:27;;;;;;;10.13;5.58;;;;;;;21.91;100.00;100202.39;5156446;55;1140777;-73
2023/06/26 20:17:33;;;;;;;7.90;6.30;;;;;;;21.86;100.00;100205.36;5142825;55;1143348;-73
2023/06/26 20:22:39;;;;;;;10.63;5.65;;;;;;;22.05;100.00;100201.96;5103431;56;1141178;-72
2023/06/26 20:27:45;;;;;;;7.05;5.62;;;;;;;22.23;100.00;100203.59;5116591;56;1143367;-75
2023/06/26 20:32:50;;;;;;;6.72;4.87;;;;;;;22.20;100.00;100208.54;5132685;56;1140810;-73
2023/06/26 20:37:56;;;;;;;7.78;5.40;;;;;;;22.10;100.00;100210.28;5118571;56;1140897;-72
2023/06/26 20:43:02;;;;;;;4.95;4.53;;;;;;;21.92;100.00;100207.27;5115218;56;1141032;-72
2023/06/26 20:48:09;;;;;;;9.93;5.65;;;;;;;21.80;100.00;100229.05;5140615;55;1141037;-76
2023/06/26 20:53:15;;;;;;;6.10;5.50;;;;;;;21.72;100.00;100225.48;5135535;55;1140851;-74
2023/06/26 21:03:45;;;;;;;12.30;6.33;;;;;;;21.86;100.00;100232.28;5389062;53;46959;-74
2023/06/26 21:08:52;;;;;;;8.53;6.05;;;;;;;21.85;100.00;100220.67;5109882;55;1139182;-74
2023/06/26 21:13:58;;;;;;;6.83;5.22;;;;;;;22.08;100.00;100209.13;5102320;55;1140821;-72
2023/06/26 21:19:03;;;;;;;10.32;5.35;;;;;;;22.38;100.00;100199.38;5164406;54;1141060;-76
2023/06/26 21:24:09;;;;;;;13.58;7.65;;;;;;;22.49;100.00;100189.34;5193019;54;1142993;-76
2023/06/26 21:29:15;;;;;;;7.67;4.75;;;;;;;22.42;100.00;100200.64;5155486;55;1143152;-79
2023/06/26 21:34:21;;;;;;;7.20;5.53;;;;;;;22.42;100.00;100200.64;5164306;55;1140929;-73
2023/06/26 21:39:27;;;;;;;5.22;4.72;;;;;;;22.22;100.00;100197.88;5154694;54;1140992;-73
2023/06/26 21:44:32;;;;;;;9.03;5.67;;;;;;;22.15;100.00;100194.87;5213459;54;1140958;-74
2023/06/26 21:49:40;;;;;;;8.15;5.55;;;;;;;22.10;100.00;100174.75;5208210;55;1140961;-73
2023/06/26 21:54:45;;;;;;;8.45;5.92;;;;;;;21.96;100.00;100196.41;5180272;55;1140995;-73
2023/06/26 21:59:51;;;;;;;6.17;4.60;;;;;;;21.67;100.00;100201.55;5198864;55;1141105;-75
2023/06/26 22:04:57;;;;;;;8.08;5.22;;;;;;;21.52;100.00;100192.25;5211893;54;1140904;-75
2023/06/26 22:10:04;;;;;;;10.72;6.40;;;;;;;21.47;100.00;100195.21;5090445;55;1141106;-74
2023/06/26 22:15:11;;;;;;;12.30;6.22;;;;;;;21.32;100.00;100209.60;5156237;55;1143074;-72
2023/06/26 22:20:17;;;;;;;10.17;5.87;;;;;;;21.27;100.00;100202.63;5121254;55;1143051;-75
2023/06/26 22:25:23;;;;;;;10.00;5.97;;;;;;;21.11;100.00;100225.74;5107615;55;1143235;-67
2023/06/26 22:30:28;;;;;;;7.83;6.20;;;;;;;20.84;100.00;100231.91;5018700;56;1143102;-76
2023/06/26 22:35:34;;;;;;;7.55;6.25;;;;;;;20.62;100.00;100228.41;5004948;55;1140838;-70
2023/06/26 22:40:40;;;;;;;6.95;5.87;;;;;;;20.52;100.00;100234.58;5090346;55;1140974;-74
2023/06/26 22:45:45;;;;;;;6.42;5.30;;;;;;;20.45;100.00;100237.73;5087621;55;1140906;-70
2023/06/26 22:50:51;;;;;;;8.93;6.95;;;;;;;20.49;100.00;100220.19;5172619;54;1250338;-71
2023/06/26 22:55:57;;;;;;;22.22;6.65;;;;;;;20.49;100.00;100222.36;5177425;55;1141025;-74
2023/06/26 23:01:02;;;;;;;8.43;6.28;;;;;;;20.45;100.00;100218.92;5177565;55;1142940;-76
2023/06/26 23:06:09;;;;;;;8.58;6.85;;;;;;;20.40;100.00;100222.17;5204836;54;1141341;-74
2023/06/26 23:11:15;;;;;;;7.28;5.85;;;;;;;20.36;100.00;100214.16;5169329;55;1141207;-73
2023/06/26 23:16:21;;;;;;;8.60;5.37;;;;;;;20.20;100.00;100211.67;5181033;54;1140898;-70
2023/06/26 23:21:27;;;;;;;9.08;5.35;;;;;;;20.01;100.00;100211.23;5126015;55;1140960;-74